createdAt,value
2018-01-21T00:00:06.369Z,26.35
2018-01-21T00:02:34.752Z,25.90
2018-01-21T00:05:03.264Z,24.80
2018-01-21T00:07:31.643Z,26.50
2018-01-21T00:10:00.014Z,24.23
2018-01-21T00:12:28.359Z,23.60
2018-01-21T00:14:56.739Z,24.48
2018-01-21T00:17:25.139Z,23.15
2018-01-21T00:19:53.492Z,25.52
2018-01-21T00:22:46.198Z,26.70
2018-01-21T00:25:15.464Z,27.73
2018-01-21T00:27:43.787Z,23.87
2018-01-21T00:30:12.261Z,29.70
2018-01-21T00:32:40.599Z,25.85
2018-01-21T00:35:08.921Z,24.77
2018-01-21T00:37:37.309Z,26.62
2018-01-21T00:40:05.634Z,24.20
2018-01-21T00:42:33.990Z,28.23
2018-01-21T00:45:02.388Z,26.85
2018-01-21T00:47:30.744Z,24.73
2018-01-21T00:49:59.075Z,28.45
2018-01-21T00:52:27.409Z,26.80
2018-01-21T00:54:55.785Z,25.12
2018-01-21T00:57:24.121Z,26.83
2018-01-21T00:59:52.462Z,25.00
2018-01-21T01:02:20.826Z,28.70
2018-01-21T01:04:55.249Z,22.05
2018-01-21T01:07:23.585Z,26.60
2018-01-21T01:09:51.974Z,26.30
2018-01-21T01:12:20.374Z,25.98
2018-01-21T01:14:50.800Z,24.10
2018-01-21T01:17:19.184Z,26.15
2018-01-21T01:19:47.582Z,24.00
2018-01-21T01:22:15.908Z,23.10
2018-01-21T01:24:44.325Z,22.73
2018-01-21T01:27:12.668Z,23.60
2018-01-21T01:29:41.024Z,23.40
2018-01-21T01:32:09.415Z,24.00
2018-01-21T01:34:37.861Z,23.83
2018-01-21T01:37:06.234Z,29.58
2018-01-21T01:39:34.566Z,24.67
2018-01-21T01:42:02.957Z,23.00
2018-01-21T01:44:31.276Z,23.10
2018-01-21T01:46:59.588Z,23.35
2018-01-21T01:49:27.949Z,24.35
2018-01-21T01:51:56.286Z,22.87
2018-01-21T01:54:24.653Z,21.35
2018-01-21T01:56:53.045Z,20.23
2018-01-21T01:59:21.422Z,21.02
2018-01-21T02:01:49.888Z,21.15
2018-01-21T02:04:19.325Z,23.87
2018-01-21T02:06:47.617Z,22.92
2018-01-21T02:09:17.077Z,21.33
2018-01-21T02:11:45.466Z,22.17
2018-01-21T02:14:13.797Z,20.98
2018-01-21T02:16:42.157Z,22.35
2018-01-21T02:19:10.557Z,21.73
2018-01-21T02:21:38.895Z,22.58
2018-01-21T02:24:07.253Z,23.45
2018-01-21T02:26:35.601Z,19.70
2018-01-21T02:29:03.932Z,19.45
2018-01-21T02:31:32.326Z,22.10
2018-01-21T02:34:00.682Z,21.58
2018-01-21T02:36:28.998Z,19.77
2018-01-21T02:38:57.387Z,23.33
2018-01-21T02:41:25.771Z,18.70
2018-01-21T02:43:54.092Z,21.90
2018-01-21T02:46:22.404Z,21.17
2018-01-21T02:48:50.761Z,21.90
2018-01-21T02:51:19.097Z,22.35
2018-01-21T02:53:47.438Z,23.27
2018-01-21T02:56:17.923Z,22.02
2018-01-21T02:58:46.320Z,23.10
2018-01-21T03:01:14.779Z,23.17
2018-01-21T03:03:43.167Z,19.87
2018-01-21T03:06:11.500Z,19.92
2018-01-21T03:08:39.810Z,23.33
2018-01-21T03:11:08.158Z,23.00
2018-01-21T03:13:36.510Z,22.55
2018-01-21T03:16:04.852Z,19.42
2018-01-21T03:18:33.210Z,21.10
2018-01-21T03:21:01.524Z,22.62
2018-01-21T03:23:29.862Z,24.30
2018-01-21T03:25:58.219Z,20.25
2018-01-21T03:28:26.557Z,23.70
2018-01-21T03:30:54.909Z,25.48
2018-01-21T03:33:23.241Z,29.98
2018-01-21T03:35:51.573Z,24.23
2018-01-21T03:38:19.892Z,25.20
2018-01-21T03:40:48.232Z,24.00
2018-01-21T03:43:16.548Z,24.02
2018-01-21T03:45:44.925Z,24.90
2018-01-21T03:48:13.298Z,26.62
2018-01-21T03:50:41.640Z,25.50
2018-01-21T03:53:09.973Z,27.05
2018-01-21T03:55:38.372Z,25.98
2018-01-21T03:58:06.685Z,23.87
2018-01-21T04:00:35.018Z,31.65
2018-01-21T04:03:03.425Z,24.50
2018-01-21T04:05:31.754Z,25.23
2018-01-21T04:08:00.078Z,25.95
2018-01-21T04:10:28.414Z,25.50
2018-01-21T04:12:56.758Z,24.00
2018-01-21T04:15:25.077Z,26.55
2018-01-21T04:17:53.495Z,26.40
2018-01-21T04:20:21.850Z,25.17
2018-01-21T04:22:50.415Z,23.58
2018-01-21T04:25:18.885Z,27.95
2018-01-21T04:27:47.196Z,24.90
2018-01-21T04:30:15.489Z,23.92
2018-01-21T04:32:43.813Z,23.60
2018-01-21T04:35:12.135Z,22.65
2018-01-21T04:37:40.438Z,25.10
2018-01-21T04:40:08.823Z,24.67
2018-01-21T04:42:37.133Z,25.45
2018-01-21T04:45:05.462Z,24.70
2018-01-21T04:47:33.820Z,23.90
2018-01-21T04:50:02.191Z,24.48
2018-01-21T04:52:30.577Z,20.75
2018-01-21T04:54:58.919Z,25.42
2018-01-21T04:57:27.267Z,26.58
2018-01-21T04:59:55.589Z,21.62
2018-01-21T05:02:24.075Z,22.37
2018-01-21T05:04:52.542Z,29.02
2018-01-21T05:07:21.936Z,23.25
2018-01-21T05:09:50.315Z,23.05
2018-01-21T05:12:18.628Z,23.80
2018-01-21T05:14:46.973Z,25.08
2018-01-21T05:17:15.342Z,23.70
2018-01-21T05:19:50.816Z,25.65
2018-01-21T05:22:19.144Z,27.05
2018-01-21T05:24:47.461Z,26.60
2018-01-21T05:27:15.811Z,27.67
2018-01-21T05:29:44.440Z,26.08
2018-01-21T05:32:13.099Z,26.15
2018-01-21T05:34:41.458Z,26.50
2018-01-21T05:37:09.886Z,33.50
2018-01-21T05:39:38.213Z,26.48
2018-01-21T05:42:06.630Z,27.42
2018-01-21T05:44:34.972Z,26.23
2018-01-21T05:47:03.411Z,29.50
2018-01-21T05:49:31.731Z,27.95
2018-01-21T05:52:00.090Z,27.17
2018-01-21T05:54:28.463Z,25.52
2018-01-21T05:56:56.792Z,25.50
2018-01-21T05:59:25.180Z,23.83
2018-01-21T06:01:54.557Z,29.75
2018-01-21T06:04:22.934Z,26.95
2018-01-21T06:06:51.309Z,23.08
2018-01-21T06:09:19.636Z,28.20
2018-01-21T06:11:47.990Z,25.95
2018-01-21T06:14:17.408Z,30.88
2018-01-21T06:16:45.713Z,25.25
2018-01-21T06:19:14.201Z,23.58
2018-01-21T06:21:42.553Z,24.12
2018-01-21T06:24:10.892Z,27.67
2018-01-21T06:26:39.257Z,24.75
2018-01-21T06:29:07.656Z,23.92
2018-01-21T06:31:35.950Z,29.35
2018-01-21T06:34:04.347Z,28.10
2018-01-21T06:36:32.724Z,23.83
2018-01-21T06:39:01.037Z,27.85
2018-01-21T06:41:29.351Z,26.73
2018-01-21T06:43:57.728Z,28.60
2018-01-21T06:46:26.117Z,25.00
2018-01-21T06:48:54.446Z,25.23
2018-01-21T06:51:22.841Z,29.50
2018-01-21T06:53:51.153Z,30.55
2018-01-21T06:56:19.478Z,27.85
2018-01-21T06:58:47.894Z,26.90
2018-01-21T07:01:16.230Z,30.70
2018-01-21T07:03:44.602Z,31.10
2018-01-21T07:06:12.975Z,27.40
2018-01-21T07:08:41.308Z,30.02
2018-01-21T07:11:09.650Z,30.85
2018-01-21T07:13:40.020Z,26.33
2018-01-21T07:16:08.408Z,27.65
2018-01-21T07:18:38.873Z,28.98
2018-01-21T07:21:07.334Z,24.15
2018-01-21T07:23:42.945Z,22.08
2018-01-21T07:26:12.376Z,22.50
2018-01-21T07:28:40.756Z,20.80
2018-01-21T07:31:11.228Z,18.42
2018-01-21T07:33:39.755Z,17.65
2018-01-21T07:36:08.160Z,22.08
2018-01-21T07:38:36.485Z,33.90
2018-01-21T07:41:04.861Z,29.75
2018-01-21T07:43:33.304Z,28.23
2018-01-21T07:46:02.704Z,26.73
2018-01-21T07:48:31.091Z,24.65
2018-01-21T07:50:59.421Z,27.62
2018-01-21T07:53:27.889Z,23.65
2018-01-21T07:55:56.389Z,22.52
2018-01-21T07:58:24.728Z,28.33
2018-01-21T08:00:54.132Z,27.60
2018-01-21T08:03:22.559Z,29.63
2018-01-21T08:05:51.064Z,24.23
2018-01-21T08:08:19.392Z,24.23
2018-01-21T08:10:47.861Z,25.85
2018-01-21T08:13:16.174Z,24.63
2018-01-21T08:15:44.486Z,23.62
2018-01-21T08:18:12.918Z,21.77
2018-01-21T08:20:41.280Z,21.62
2018-01-21T08:23:09.643Z,20.27
2018-01-21T08:25:38.048Z,18.07
2018-01-21T08:28:06.404Z,18.53
2018-01-21T08:30:34.766Z,18.13
2018-01-21T08:33:03.192Z,17.43
2018-01-21T08:35:37.494Z,18.53
2018-01-21T08:38:12.102Z,17.50
2018-01-21T08:40:46.485Z,18.23
2018-01-21T08:43:14.903Z,15.77
2018-01-21T08:45:43.248Z,16.87
2018-01-21T08:48:11.612Z,17.83
2018-01-21T08:50:40.087Z,17.37
2018-01-21T08:53:08.522Z,16.20
2018-01-21T08:55:36.916Z,15.23
2018-01-21T08:58:05.264Z,16.77
2018-01-21T09:00:33.602Z,17.40
2018-01-21T09:03:01.988Z,16.93
2018-01-21T09:05:30.444Z,17.23
2018-01-21T09:07:58.886Z,17.33
2018-01-21T09:10:27.262Z,16.63
2018-01-21T09:12:55.618Z,18.17
2018-01-21T09:15:24.060Z,17.40
2018-01-21T09:17:52.465Z,16.97
2018-01-21T09:20:20.895Z,15.90
2018-01-21T09:22:49.241Z,15.97
2018-01-21T09:25:17.589Z,16.53
2018-01-21T09:27:46.050Z,16.40
2018-01-21T09:30:14.401Z,15.73
2018-01-21T09:32:42.935Z,14.70
2018-01-21T09:35:11.310Z,15.63
2018-01-21T09:37:39.653Z,16.37
2018-01-21T09:40:08.039Z,16.37
2018-01-21T09:42:36.462Z,15.77
2018-01-21T09:45:04.798Z,16.77
2018-01-21T09:47:33.167Z,15.87
2018-01-21T09:50:01.532Z,15.63
2018-01-21T09:52:29.841Z,15.07
2018-01-21T09:54:58.164Z,16.70
2018-01-21T09:57:26.558Z,19.30
2018-01-21T09:59:54.945Z,19.17
2018-01-21T10:02:23.293Z,17.47
2018-01-21T10:04:51.687Z,19.47
2018-01-21T10:07:20.093Z,19.87
2018-01-21T10:09:48.409Z,20.60
2018-01-21T10:12:16.810Z,21.57
2018-01-21T10:14:45.174Z,18.50
2018-01-21T10:17:13.645Z,20.47
2018-01-21T10:19:42.010Z,17.23
2018-01-21T10:22:10.361Z,17.90
2018-01-21T10:24:38.751Z,22.50
2018-01-21T10:27:07.098Z,16.10
2018-01-21T10:29:35.429Z,16.43
2018-01-21T10:32:03.782Z,17.23
2018-01-21T10:34:32.203Z,16.87
2018-01-21T10:37:00.583Z,16.60
2018-01-21T10:39:28.955Z,17.70
2018-01-21T10:41:57.292Z,17.07
2018-01-21T10:44:25.657Z,16.90
2018-01-21T10:46:53.974Z,20.20
2018-01-21T10:49:22.468Z,19.23
2018-01-21T10:51:50.880Z,16.77
2018-01-21T10:54:19.255Z,15.87
2018-01-21T10:56:47.739Z,15.40
2018-01-21T10:59:16.177Z,16.80
2018-01-21T11:01:44.517Z,15.43
2018-01-21T11:04:12.879Z,15.67
2018-01-21T11:06:41.207Z,16.23
2018-01-21T11:09:09.531Z,15.80
2018-01-21T11:11:37.870Z,15.37
2018-01-21T11:14:06.204Z,15.40
2018-01-21T11:16:34.552Z,14.80
2018-01-21T11:19:02.917Z,14.17
2018-01-21T11:21:31.638Z,11.73
2018-01-21T11:23:59.964Z,13.17
2018-01-21T11:26:28.512Z,13.43
2018-01-21T11:28:56.883Z,13.80
2018-01-21T11:31:25.214Z,3.50
2018-01-21T11:33:53.552Z,15.37
2018-01-21T11:36:21.895Z,14.27
2018-01-21T11:38:50.226Z,2.30
2018-01-21T11:41:18.587Z,1.07
2018-01-21T11:43:46.935Z,1.23
2018-01-21T11:46:15.258Z,0.93
2018-01-21T11:48:43.621Z,2.07
2018-01-21T11:51:11.973Z,2.53
2018-01-21T11:53:40.314Z,3.13
2018-01-21T11:56:08.658Z,2.37
2018-01-21T11:58:37.031Z,1.90
2018-01-21T12:01:03.793Z,1.23
2018-01-21T12:03:30.532Z,4.87
2018-01-21T12:05:58.914Z,4.20
2018-01-21T12:08:27.261Z,2.67
2018-01-21T12:10:55.664Z,1.00
2018-01-21T12:13:24.025Z,0.90
2018-01-21T12:15:52.361Z,1.17
2018-01-21T12:18:20.738Z,2.57
2018-01-21T12:20:49.116Z,3.00
2018-01-21T12:23:15.809Z,0.60
2018-01-21T12:25:42.535Z,2.20
2018-01-21T12:28:09.974Z,0.70
2018-01-21T12:30:37.788Z,0.80
2018-01-21T12:33:05.331Z,2.20
2018-01-21T12:35:32.783Z,3.60
2018-01-21T12:38:01.144Z,11.03
2018-01-21T12:40:29.562Z,0.90
2018-01-21T12:42:57.926Z,1.27
2018-01-21T12:45:26.259Z,1.13
2018-01-21T12:47:54.603Z,0.70
2018-01-21T12:50:22.053Z,0.70
2018-01-21T12:52:48.938Z,0.60
2018-01-21T12:55:15.675Z,2.27
2018-01-21T12:57:42.444Z,0.90
2018-01-21T13:00:09.190Z,2.10
2018-01-21T13:02:35.894Z,0.70
2018-01-21T13:05:02.681Z,0.60
2018-01-21T13:07:29.417Z,0.60
2018-01-21T13:09:56.214Z,1.00
2018-01-21T13:12:23.104Z,1.00
2018-01-21T13:14:49.860Z,0.80
2018-01-21T13:17:16.624Z,1.50
2018-01-21T13:19:43.285Z,4.40
2018-01-21T13:22:10.762Z,2.67
2018-01-21T13:24:38.212Z,0.70
2018-01-21T13:27:04.910Z,2.40
2018-01-21T13:29:31.686Z,0.80
2018-01-21T13:31:58.429Z,0.60
2018-01-21T13:34:25.173Z,0.77
2018-01-21T13:36:51.871Z,0.80
2018-01-21T13:39:18.563Z,0.63
2018-01-21T13:41:46.019Z,1.00
2018-01-21T13:44:12.746Z,1.63
2018-01-21T13:46:39.523Z,4.70
2018-01-21T13:49:07.124Z,1.20
2018-01-21T13:51:33.913Z,0.90
2018-01-21T13:54:01.354Z,0.80
2018-01-21T13:56:28.056Z,1.23
2018-01-21T13:58:55.470Z,0.90
2018-01-21T14:01:22.226Z,1.17
2018-01-21T14:03:48.932Z,1.27
2018-01-21T14:06:15.634Z,2.78
2018-01-21T14:08:42.511Z,1.83
2018-01-21T14:11:09.245Z,1.63
2018-01-21T14:13:35.967Z,1.12
2018-01-21T14:16:02.729Z,0.70
2018-01-21T14:18:30.147Z,0.73
2018-01-21T14:20:56.841Z,2.07
2018-01-21T14:23:23.622Z,1.57
2018-01-21T14:25:50.352Z,2.50
2018-01-21T14:28:17.116Z,11.30
2018-01-21T14:30:43.819Z,0.65
2018-01-21T14:33:10.532Z,1.30
2018-01-21T14:35:37.225Z,2.77
2018-01-21T14:38:04.008Z,2.80
2018-01-21T14:40:30.883Z,0.90
2018-01-21T14:42:58.499Z,3.37
2018-01-21T14:45:25.222Z,0.60
2018-01-21T14:47:51.906Z,3.83
2018-01-21T14:50:18.602Z,5.68
2018-01-21T14:52:45.362Z,4.82
2018-01-21T14:55:12.144Z,1.90
2018-01-21T14:57:38.865Z,1.83
2018-01-21T15:00:07.663Z,1.80
2018-01-21T15:02:34.341Z,1.20
2018-01-21T15:05:01.759Z,1.87
2018-01-21T15:07:28.469Z,3.70
2018-01-21T15:09:55.150Z,2.17
2018-01-21T15:12:21.866Z,5.95
2018-01-21T15:14:48.650Z,1.85
2018-01-21T15:17:19.058Z,6.80
2018-01-21T15:19:45.790Z,1.20
2018-01-21T15:22:12.581Z,1.52
2018-01-21T15:24:39.354Z,1.77
2018-01-21T15:27:07.103Z,5.00
2018-01-21T15:29:33.871Z,1.40
2018-01-21T15:32:00.577Z,1.52
2018-01-21T15:34:27.380Z,2.53
2018-01-21T15:36:55.215Z,0.60
2018-01-21T15:39:22.700Z,1.48
2018-01-21T15:41:49.566Z,1.23
2018-01-21T15:44:16.371Z,0.90
2018-01-21T15:46:43.788Z,1.50
2018-01-21T15:49:10.471Z,1.20
2018-01-21T15:51:38.130Z,1.55
2018-01-21T15:54:05.645Z,5.40
2018-01-21T15:56:32.346Z,1.70
2018-01-21T15:58:59.815Z,3.45
2018-01-21T16:01:26.730Z,1.25
2018-01-21T16:03:53.477Z,1.58
2018-01-21T16:06:20.256Z,3.80
2018-01-21T16:08:47.709Z,1.00
2018-01-21T16:11:15.209Z,1.95
2018-01-21T16:13:42.020Z,1.23
2018-01-21T16:16:09.511Z,2.05
2018-01-21T16:18:37.044Z,1.23
2018-01-21T16:21:04.555Z,5.90
2018-01-21T16:23:31.209Z,1.05
2018-01-21T16:25:57.945Z,4.03
2018-01-21T16:28:24.672Z,4.22
2018-01-21T16:30:51.432Z,0.95
2018-01-21T16:33:18.173Z,1.95
2018-01-21T16:35:45.752Z,0.80
2018-01-21T16:38:33.855Z,1.27
2018-01-21T16:41:00.638Z,3.37
2018-01-21T16:43:27.403Z,1.95
2018-01-21T16:45:54.130Z,3.10
2018-01-21T16:48:20.934Z,1.00
2018-01-21T16:50:47.682Z,1.83
2018-01-21T16:53:14.381Z,0.85
2018-01-21T16:55:41.129Z,1.08
2018-01-21T16:58:07.814Z,1.15
2018-01-21T17:00:34.500Z,0.70
2018-01-21T17:03:01.315Z,0.85
2018-01-21T17:05:28.077Z,3.28
2018-01-21T17:07:54.852Z,3.25
2018-01-21T17:10:21.622Z,1.25
2018-01-21T17:12:49.053Z,1.70
2018-01-21T17:15:15.779Z,1.30
2018-01-21T17:17:42.839Z,1.35
2018-01-21T17:20:09.589Z,2.58
2018-01-21T17:22:36.459Z,2.85
2018-01-21T17:25:03.982Z,6.12
2018-01-21T17:27:30.714Z,1.92
2018-01-21T17:29:58.193Z,2.00
2018-01-21T17:32:24.938Z,3.03
2018-01-21T17:34:51.675Z,3.40
2018-01-21T17:37:18.390Z,4.25
2018-01-21T17:39:45.322Z,1.42
2018-01-21T17:42:12.214Z,2.22
2018-01-21T17:44:38.959Z,1.42
2018-01-21T17:47:05.895Z,1.55
2018-01-21T17:49:32.640Z,0.85
2018-01-21T17:51:59.337Z,1.58
2018-01-21T17:54:26.816Z,2.00
2018-01-21T17:56:54.257Z,1.58
2018-01-21T17:59:21.924Z,2.08
2018-01-21T18:01:49.466Z,1.73
2018-01-21T18:04:16.323Z,2.45
2018-01-21T18:06:43.338Z,2.65
2018-01-21T18:09:10.126Z,8.52
2018-01-21T18:11:37.606Z,1.80
2018-01-21T18:14:05.194Z,2.05
2018-01-21T18:16:31.968Z,1.70
2018-01-21T18:18:58.698Z,1.95
2018-01-21T18:21:25.361Z,7.25
2018-01-21T18:23:52.325Z,3.33
2018-01-21T18:26:19.038Z,3.35
2018-01-21T18:28:45.756Z,1.70
2018-01-21T18:31:12.554Z,3.45
2018-01-21T18:33:39.251Z,1.90
2018-01-21T18:36:05.952Z,6.18
2018-01-21T18:38:32.687Z,2.67
2018-01-21T18:40:59.374Z,6.28
2018-01-21T18:43:26.087Z,3.17
2018-01-21T18:45:53.690Z,3.33
2018-01-21T18:48:21.684Z,1.60
2018-01-21T18:50:53.618Z,2.47
2018-01-21T18:53:22.638Z,1.50
2018-01-21T18:55:49.313Z,1.30
2018-01-21T18:58:16.179Z,3.25
2018-01-21T19:00:43.778Z,2.85
2018-01-21T19:03:10.550Z,2.83
2018-01-21T19:05:37.246Z,2.20
2018-01-21T19:08:04.723Z,1.45
2018-01-21T19:10:31.428Z,1.25
2018-01-21T19:12:58.149Z,1.15
2018-01-21T19:15:24.937Z,1.08
2018-01-21T19:17:52.500Z,1.92
2018-01-21T19:20:19.290Z,1.95
2018-01-21T19:22:46.069Z,3.17
2018-01-21T19:25:12.820Z,2.90
2018-01-21T19:27:40.319Z,1.35
2018-01-21T19:30:07.109Z,1.20
2018-01-21T19:32:33.913Z,2.60
2018-01-21T19:35:00.635Z,1.95
2018-01-21T19:37:28.206Z,2.42
2018-01-21T19:40:01.429Z,4.12
2018-01-21T19:42:35.285Z,3.05
2018-01-21T19:45:02.094Z,3.25
2018-01-21T19:47:28.796Z,1.50
2018-01-21T19:49:56.280Z,1.30
2018-01-21T19:52:23.024Z,5.60
2018-01-21T19:54:49.748Z,1.17
2018-01-21T19:57:17.235Z,3.05
2018-01-21T19:59:44.122Z,5.37
2018-01-21T20:02:10.928Z,3.03
2018-01-21T20:04:37.697Z,3.67
2018-01-21T20:07:04.633Z,5.30
2018-01-21T20:09:31.410Z,1.15
2018-01-21T20:11:58.299Z,3.55
2018-01-21T20:14:25.074Z,3.10
2018-01-21T20:16:51.745Z,2.50
2018-01-21T20:19:18.490Z,4.82
2018-01-21T20:21:45.998Z,3.83
2018-01-21T20:24:12.837Z,4.00
2018-01-21T20:26:39.610Z,6.07
2018-01-21T20:29:06.327Z,5.30
2018-01-21T20:31:33.127Z,5.45
2018-01-21T20:33:59.827Z,4.80
2018-01-21T20:36:26.526Z,2.65
2018-01-21T20:38:53.383Z,2.97
2018-01-21T20:41:20.946Z,3.03
2018-01-21T20:43:48.456Z,2.83
2018-01-21T20:46:16.222Z,4.70
2018-01-21T20:48:43.110Z,2.58
2018-01-21T20:51:15.756Z,5.78
2018-01-21T20:53:48.589Z,10.57
2018-01-21T20:56:15.440Z,2.03
2018-01-21T20:58:42.903Z,4.25
2018-01-21T21:01:10.395Z,3.08
2018-01-21T21:03:39.211Z,4.85
2018-01-21T21:06:07.997Z,2.12
2018-01-21T21:08:34.713Z,4.85
2018-01-21T21:11:02.158Z,2.72
2018-01-21T21:13:29.639Z,5.20
2018-01-21T21:15:56.410Z,3.50
2018-01-21T21:18:23.162Z,2.90
2018-01-21T21:20:50.611Z,5.90
2018-01-21T21:23:17.366Z,4.72
2018-01-21T21:25:44.061Z,3.35
2018-01-21T21:28:11.514Z,5.47
2018-01-21T21:30:39.025Z,2.83
2018-01-21T21:33:05.742Z,3.62
2018-01-21T21:35:32.532Z,2.65
2018-01-21T21:37:59.259Z,3.25
2018-01-21T21:40:25.947Z,3.80
2018-01-21T21:42:52.644Z,5.18
2018-01-21T21:45:19.353Z,3.50
2018-01-21T21:47:46.905Z,4.87
2018-01-21T21:50:13.719Z,6.65
2018-01-21T21:52:40.418Z,6.05
2018-01-21T21:55:07.135Z,4.47
2018-01-21T21:57:34.870Z,4.32
2018-01-21T22:00:01.759Z,5.40
2018-01-21T22:02:29.316Z,3.80
2018-01-21T22:04:56.136Z,6.45
2018-01-21T22:07:23.895Z,5.22
2018-01-21T22:09:50.684Z,7.07
2018-01-21T22:12:18.132Z,5.18
2018-01-21T22:14:45.616Z,8.05
2018-01-21T22:17:12.310Z,4.37
2018-01-21T22:19:39.101Z,10.27
2018-01-21T22:22:06.599Z,8.25
2018-01-21T22:24:33.497Z,6.78
2018-01-21T22:27:00.947Z,7.10
2018-01-21T22:29:27.834Z,9.30
2018-01-21T22:31:54.540Z,7.65
2018-01-21T22:34:21.288Z,9.25
2018-01-21T22:36:48.723Z,8.23
2018-01-21T22:39:15.449Z,10.43
2018-01-21T22:41:42.130Z,9.00
2018-01-21T22:44:08.917Z,6.93
2018-01-21T22:46:35.608Z,12.68
2018-01-21T22:49:02.391Z,7.85
2018-01-21T22:51:29.891Z,7.70
2018-01-21T22:53:56.575Z,8.52
2018-01-21T22:56:24.082Z,6.40
2018-01-21T22:58:50.801Z,9.45
2018-01-21T23:01:17.552Z,8.02
2018-01-21T23:03:44.258Z,5.15
2018-01-21T23:06:11.146Z,6.50
2018-01-21T23:08:38.112Z,7.40
2018-01-21T23:11:04.862Z,5.00
2018-01-21T23:13:31.603Z,8.13
2018-01-21T23:15:59.427Z,5.78
2018-01-21T23:18:26.904Z,7.30
2018-01-21T23:21:01.413Z,7.10
2018-01-21T23:23:28.860Z,7.32
2018-01-21T23:25:55.574Z,6.65
2018-01-21T23:28:22.269Z,12.07
2018-01-21T23:30:50.782Z,5.78
2018-01-21T23:33:18.529Z,9.35
2018-01-21T23:35:45.994Z,7.00
2018-01-21T23:38:12.700Z,5.78
2018-01-21T23:40:39.381Z,5.80
2018-01-21T23:43:06.059Z,6.70
2018-01-21T23:45:32.729Z,7.35
2018-01-21T23:47:59.386Z,7.50
2018-01-21T23:50:26.890Z,14.77
2018-01-21T23:52:53.571Z,6.70
2018-01-21T23:55:20.268Z,4.87
2018-01-21T23:57:46.954Z,6.80
